createdAt,value
2022-08-12T00:00:49.421Z,97398.16
2022-08-12T00:03:34.932Z,97401.72
2022-08-12T00:06:20.678Z,97398.16
2022-08-12T00:09:06.501Z,97398.16
2022-08-12T00:11:53.330Z,97396.44
2022-08-12T00:14:38.886Z,97396.44
2022-08-12T00:17:24.839Z,97397.28
2022-08-12T00:20:10.535Z,97391.06
2022-08-12T00:22:59.057Z,97387.47
2022-08-12T00:26:20.338Z,97386.75
2022-08-12T00:29:01.837Z,97395.69
2022-08-12T00:31:47.917Z,97387.59
2022-08-12T00:34:33.651Z,97379.53
2022-08-12T00:37:19.061Z,97378.66
2022-08-12T00:40:10.995Z,97391.25
2022-08-12T00:42:39.209Z,97385.88
2022-08-12T00:45:09.485Z,97389.44
2022-08-12T00:47:37.586Z,97390.31
2022-08-12T00:50:07.015Z,97386.75
2022-08-12T00:52:35.691Z,97371.50
2022-08-12T00:55:04.777Z,97376.91
2022-08-12T00:57:35.858Z,97363.44
2022-08-12T01:00:08.591Z,97360.72
2022-08-12T01:02:40.634Z,97359.91
2022-08-12T01:05:27.425Z,97358.03
2022-08-12T01:08:12.890Z,97359.91
2022-08-12T01:11:00.690Z,97361.72
2022-08-12T01:13:29.635Z,97363.56
2022-08-12T01:15:58.452Z,97368.06
2022-08-12T01:18:28.683Z,97367.13
2022-08-12T01:21:04.375Z,97371.63
2022-08-12T01:23:50.272Z,97367.25
2022-08-12T01:26:21.056Z,97366.38
2022-08-12T01:28:50.220Z,97372.63
2022-08-12T01:31:19.949Z,97370.78
2022-08-12T01:33:54.030Z,97360.09
2022-08-12T01:36:23.083Z,97354.72
2022-08-12T01:38:51.183Z,97363.69
2022-08-12T01:41:20.738Z,97354.72
2022-08-12T01:43:48.879Z,97353.84
2022-08-12T01:46:22.726Z,97349.31
2022-08-12T01:49:01.117Z,97345.75
2022-08-12T01:52:21.624Z,97347.50
2022-08-12T01:54:29.324Z,97336.81
2022-08-12T01:57:02.425Z,97334.13
2022-08-12T01:59:50.089Z,97337.66
2022-08-12T02:02:19.794Z,97332.41
2022-08-12T02:05:16.421Z,97335.97
2022-08-12T02:08:05.337Z,97334.22
2022-08-12T02:10:56.810Z,97331.53
2022-08-12T02:13:48.476Z,97330.69
2022-08-12T02:16:24.715Z,97326.25
2022-08-12T02:18:58.708Z,97320.75
2022-08-12T02:21:38.577Z,97320.88
2022-08-12T02:24:07.822Z,97318.16
2022-08-12T02:26:37.627Z,97317.31
2022-08-12T02:29:08.160Z,97317.31
2022-08-12T02:31:36.315Z,97305.69
2022-08-12T02:34:04.440Z,97303.81
2022-08-12T02:36:33.243Z,97306.50
2022-08-12T02:39:01.897Z,97303.81
2022-08-12T02:41:30.196Z,97307.38
2022-08-12T02:44:01.605Z,97314.59
2022-08-12T02:46:32.561Z,97317.31
2022-08-12T02:49:04.726Z,97311.91
2022-08-12T02:51:33.789Z,97321.84
2022-08-12T02:54:06.196Z,97318.28
2022-08-12T02:56:37.687Z,97309.34
2022-08-12T02:59:06.860Z,97303.06
2022-08-12T03:01:36.511Z,97315.59
2022-08-12T03:04:21.097Z,97312.03
2022-08-12T03:06:52.691Z,97313.84
2022-08-12T03:09:21.934Z,97312.03
2022-08-12T03:11:56.435Z,97310.31
2022-08-12T03:14:28.510Z,97314.84
2022-08-12T03:17:01.058Z,97313.97
2022-08-12T03:19:31.167Z,97314.84
2022-08-12T03:22:13.122Z,97310.41
2022-08-12T03:24:43.143Z,97312.28
2022-08-12T03:27:13.157Z,97310.53
2022-08-12T03:29:46.991Z,97313.25
2022-08-12T03:32:35.955Z,97315.81
2022-08-12T03:35:07.528Z,97314.97
2022-08-12T03:37:35.979Z,97316.81
2022-08-12T03:40:04.368Z,97316.81
2022-08-12T03:42:34.987Z,97324.91
2022-08-12T03:45:35.817Z,97325.75
2022-08-12T03:48:38.293Z,97327.59
2022-08-12T03:51:24.073Z,97330.41
2022-08-12T03:54:11.626Z,97324.16
2022-08-12T03:56:57.782Z,97324.16
2022-08-12T03:59:43.211Z,97322.41
2022-08-12T04:02:14.619Z,97327.81
2022-08-12T04:04:45.603Z,97322.41
2022-08-12T04:07:14.323Z,97316.94
2022-08-12T04:09:43.379Z,97319.63
2022-08-12T04:12:32.792Z,97325.84
2022-08-12T04:15:01.473Z,97318.63
2022-08-12T04:17:29.697Z,97319.97
2022-08-12T04:19:59.552Z,97321.16
2022-08-12T04:22:30.841Z,97322.38
2022-08-12T04:25:01.357Z,97318.94
2022-08-12T04:27:32.099Z,97320.88
2022-08-12T04:30:31.436Z,97319.28
2022-08-12T04:32:50.071Z,97318.53
2022-08-12T04:35:19.810Z,97320.47
2022-08-12T04:37:58.422Z,97321.47
2022-08-12T04:40:29.791Z,97321.53
2022-08-12T04:42:58.371Z,97331.47
2022-08-12T04:45:26.517Z,97338.81
2022-08-12T04:47:54.664Z,97345.16
2022-08-12T04:50:35.373Z,97340.75
2022-08-12T04:53:05.695Z,97346.16
2022-08-12T04:55:34.714Z,97332.75
2022-08-12T04:58:02.955Z,97336.44
2022-08-12T05:00:31.100Z,97338.28
2022-08-12T05:02:59.213Z,97336.56
2022-08-12T05:05:33.860Z,97340.97
2022-08-12T05:08:04.332Z,97340.22
2022-08-12T05:10:35.762Z,97341.97
2022-08-12T05:13:06.285Z,97342.03
2022-08-12T05:15:36.207Z,97342.16
2022-08-12T05:18:19.630Z,97335.16
2022-08-12T05:20:50.467Z,97340.78
2022-08-12T05:23:19.431Z,97351.78
2022-08-12T05:25:48.812Z,97348.56
2022-08-12T05:28:17.117Z,97351.50
2022-08-12T05:30:45.339Z,97358.47
2022-08-12T05:33:14.866Z,97354.94
2022-08-12T05:35:44.145Z,97357.53
2022-08-12T05:38:32.105Z,97356.41
2022-08-12T05:41:00.336Z,97363.53
2022-08-12T05:43:28.815Z,97361.59
2022-08-12T05:45:56.973Z,97364.28
2022-08-12T05:48:25.569Z,97363.22
2022-08-12T05:50:53.823Z,97366.75
2022-08-12T05:53:23.950Z,97366.75
2022-08-12T05:55:53.338Z,97373.88
2022-08-12T05:58:21.578Z,97369.44
2022-08-12T06:00:49.669Z,97369.44
2022-08-12T06:03:19.630Z,97364.06
2022-08-12T06:05:55.554Z,97374.84
2022-08-12T06:08:26.038Z,97374.84
2022-08-12T06:10:54.220Z,97372.03
2022-08-12T06:13:25.714Z,97374.75
2022-08-12T06:15:57.219Z,97376.56
2022-08-12T06:18:29.628Z,97376.56
2022-08-12T06:21:00.251Z,97377.44
2022-08-12T06:23:31.635Z,97378.28
2022-08-12T06:26:00.006Z,97371.06
2022-08-12T06:28:30.541Z,97381.84
2022-08-12T06:31:24.442Z,97374.75
2022-08-12T06:34:00.128Z,97392.72
2022-08-12T06:36:36.909Z,97380.22
2022-08-12T06:39:15.006Z,97375.69
2022-08-12T06:42:10.671Z,97375.81
2022-08-12T06:44:50.580Z,97370.44
2022-08-12T06:47:19.689Z,97375.59
2022-08-12T06:49:49.553Z,97375.50
2022-08-12T06:52:21.662Z,97371.69
2022-08-12T06:54:53.599Z,97374.28
2022-08-12T06:58:05.703Z,97371.47
2022-08-12T07:00:12.333Z,97373.19
2022-08-12T07:02:40.652Z,97365.84
2022-08-12T07:05:09.697Z,97375.66
2022-08-12T07:07:38.975Z,97365.75
2022-08-12T07:10:09.455Z,97372.84
2022-08-12T07:12:37.635Z,97374.47
2022-08-12T07:15:06.570Z,97383.47
2022-08-12T07:17:37.747Z,97373.50
2022-08-12T07:20:09.975Z,97365.34
2022-08-12T07:22:39.938Z,97372.44
2022-08-12T07:25:27.768Z,97377.69
2022-08-12T07:27:56.024Z,97366.91
2022-08-12T07:30:24.282Z,97365.97
2022-08-12T07:32:52.570Z,97365.09
2022-08-12T07:35:20.817Z,97370.38
2022-08-12T07:37:50.606Z,97372.09
2022-08-12T07:40:20.401Z,97364.88
2022-08-12T07:42:48.515Z,97376.50
2022-08-12T07:45:16.654Z,97364.75
2022-08-12T07:47:44.975Z,97368.31
2022-08-12T07:50:13.399Z,97368.31
2022-08-12T07:52:43.252Z,97364.63
2022-08-12T07:55:12.111Z,97372.72
2022-08-12T07:57:52.456Z,97371.78
2022-08-12T08:00:20.941Z,97378.00
2022-08-12T08:02:49.374Z,97374.47
2022-08-12T08:05:18.729Z,97377.16
2022-08-12T08:07:46.849Z,97380.69
2022-08-12T08:10:15.031Z,97376.03
2022-08-12T08:12:54.059Z,97380.81
2022-08-12T08:15:44.494Z,97373.81
2022-08-12T08:18:17.143Z,97374.91
2022-08-12T08:20:55.414Z,97380.19
2022-08-12T08:23:34.836Z,97379.19
2022-08-12T08:26:03.487Z,97379.19
2022-08-12T08:28:36.566Z,97372.84
2022-08-12T08:31:06.169Z,97371.03
2022-08-12T08:34:09.022Z,97375.41
2022-08-12T08:36:23.915Z,97366.38
2022-08-12T08:38:58.447Z,97378.00
2022-08-12T08:42:15.967Z,97371.66
2022-08-12T08:44:32.531Z,97377.03
2022-08-12T08:47:03.866Z,97370.66
2022-08-12T08:49:32.207Z,97370.66
2022-08-12T08:52:03.366Z,97369.69
2022-08-12T08:54:33.500Z,97373.25
2022-08-12T08:57:01.627Z,97373.34
2022-08-12T08:59:29.789Z,97364.63
2022-08-12T09:01:58.135Z,97369.16
2022-08-12T09:05:13.409Z,97370.03
2022-08-12T09:07:51.324Z,97364.63
2022-08-12T09:10:15.650Z,97365.38
2022-08-12T09:13:22.995Z,97350.22
2022-08-12T09:15:57.738Z,97352.03
2022-08-12T09:18:33.290Z,97354.72
2022-08-12T09:21:03.881Z,97349.22
2022-08-12T09:24:00.869Z,97340.25
2022-08-12T09:26:28.436Z,97340.16
2022-08-12T09:28:57.176Z,97341.88
2022-08-12T09:32:06.867Z,97335.53
2022-08-12T09:34:27.804Z,97332.81
2022-08-12T09:37:18.709Z,97319.22
2022-08-12T09:40:02.356Z,97316.66
2022-08-12T09:46:11.391Z,97323.63
2022-08-12T09:48:39.216Z,97322.66
2022-08-12T09:51:11.050Z,97313.56
2022-08-12T09:54:05.442Z,97314.31
2022-08-12T09:56:58.501Z,97310.78
2022-08-12T10:00:16.324Z,97316.19
2022-08-12T10:02:42.616Z,97306.22
2022-08-12T10:05:01.807Z,97298.16
2022-08-12T10:07:40.603Z,97302.56
2022-08-12T10:10:23.017Z,97304.28
2022-08-12T10:13:13.373Z,97304.28
2022-08-12T10:16:04.669Z,97295.34
2022-08-12T10:18:51.984Z,97292.66
2022-08-12T10:21:21.976Z,97293.50
2022-08-12T10:23:56.695Z,97294.38
2022-08-12T10:26:44.630Z,97290.72
2022-08-12T10:30:38.840Z,97293.41
2022-08-12T10:32:43.673Z,97292.41
2022-08-12T10:35:10.252Z,97287.75
2022-08-12T10:38:37.336Z,97280.53
2022-08-12T10:40:32.291Z,97273.19
2022-08-12T10:43:20.267Z,97285.69
2022-08-12T10:45:49.329Z,97274.91
2022-08-12T10:48:26.774Z,97278.47
2022-08-12T10:52:03.150Z,97280.19
2022-08-12T10:53:54.317Z,97274.69
2022-08-12T10:56:34.262Z,97272.84
2022-08-12T10:59:10.898Z,97279.06
2022-08-12T11:04:16.863Z,97281.78
2022-08-12T11:04:41.310Z,97287.06
2022-08-12T11:08:35.124Z,97287.06
2022-08-12T11:10:03.127Z,97286.22
2022-08-12T11:12:57.083Z,97285.34
2022-08-12T11:15:32.709Z,97280.69
2022-08-12T11:18:18.740Z,97281.44
2022-08-12T11:20:48.520Z,97275.06
2022-08-12T11:23:25.973Z,97280.34
2022-08-12T11:26:06.787Z,97268.56
2022-08-12T11:28:37.169Z,97261.22
2022-08-12T11:31:11.902Z,97253.84
2022-08-12T11:34:05.619Z,97252.03
2022-08-12T11:36:30.691Z,97254.59
2022-08-12T11:39:02.298Z,97258.16
2022-08-12T11:41:33.170Z,97247.25
2022-08-12T11:44:33.359Z,97252.53
2022-08-12T11:46:52.887Z,97256.06
2022-08-12T11:49:31.005Z,97261.38
2022-08-12T11:52:00.200Z,97259.50
2022-08-12T11:54:29.804Z,97262.94
2022-08-12T11:56:59.381Z,97253.03
2022-08-12T12:02:20.554Z,97247.50
2022-08-12T12:04:53.007Z,97247.41
2022-08-12T12:07:33.946Z,97245.44
2022-08-12T12:10:12.821Z,97248.03
2022-08-12T12:12:41.540Z,97249.72
2022-08-12T12:15:24.868Z,97246.09
2022-08-12T12:17:56.447Z,97233.47
2022-08-12T12:20:26.008Z,97243.13
2022-08-12T12:22:56.011Z,97234.06
2022-08-12T12:25:59.584Z,97232.25
2022-08-12T12:28:37.108Z,97234.69
2022-08-12T12:31:01.093Z,97224.75
2022-08-12T12:33:56.892Z,97220.09
2022-08-12T12:36:29.294Z,97224.50
2022-08-12T12:38:59.980Z,97222.66
2022-08-12T12:42:43.425Z,97232.50
2022-08-12T12:44:26.142Z,97218.00
2022-08-12T12:47:17.859Z,97220.72
2022-08-12T12:49:55.758Z,97218.88
2022-08-12T12:52:26.129Z,97222.44
2022-08-12T12:54:58.671Z,97217.88
2022-08-12T12:57:59.551Z,97215.19
2022-08-12T13:00:15.990Z,97222.31
2022-08-12T13:02:52.957Z,97215.09
2022-08-12T13:05:27.765Z,97219.63
2022-08-12T13:08:01.208Z,97220.47
2022-08-12T13:10:32.146Z,97217.66
2022-08-12T13:14:06.760Z,97215.91
2022-08-12T13:15:53.934Z,97222.19
2022-08-12T13:18:30.953Z,97227.59
2022-08-12T13:21:01.069Z,97224.88
2022-08-12T13:23:36.943Z,97234.72
2022-08-12T13:26:05.749Z,97230.16
2022-08-12T13:28:33.964Z,97227.44
2022-08-12T13:31:03.078Z,97227.44
2022-08-12T13:34:32.553Z,97229.31
2022-08-12T13:36:21.944Z,97228.31
2022-08-12T13:38:54.187Z,97233.72
2022-08-12T13:41:35.884Z,97241.69
2022-08-12T13:44:05.294Z,97243.41
2022-08-12T13:46:34.822Z,97238.03
2022-08-12T13:49:04.811Z,97238.88
2022-08-12T13:51:41.166Z,97232.63
2022-08-12T13:54:13.984Z,97239.72
2022-08-12T13:56:42.380Z,97264.00
2022-08-12T13:59:18.530Z,97273.97
2022-08-12T14:01:54.421Z,97290.19
2022-08-12T14:04:25.063Z,97321.69
2022-08-12T14:06:58.404Z,97350.41
2022-08-12T14:09:29.885Z,97357.66
2022-08-12T14:11:59.967Z,97347.69
2022-08-12T14:14:31.627Z,97356.78
2022-08-12T14:17:05.662Z,97354.09
2022-08-12T14:19:37.954Z,97346.94
2022-08-12T14:22:10.574Z,97348.91
2022-08-12T14:24:40.560Z,97346.47
2022-08-12T14:27:10.885Z,97340.19
2022-08-12T14:30:06.165Z,97349.16
2022-08-12T14:32:39.991Z,97359.97
2022-08-12T14:35:09.770Z,97350.13
2022-08-12T14:37:54.912Z,97355.66
2022-08-12T14:40:27.745Z,97361.06
2022-08-12T14:42:57.355Z,97361.06
2022-08-12T14:45:44.836Z,97359.34
2022-08-12T14:48:14.876Z,97360.31
2022-08-12T14:52:16.281Z,97366.56
2022-08-12T14:59:56.429Z,97374.88
2022-08-12T15:02:19.679Z,97378.59
2022-08-12T15:04:50.391Z,97383.00
2022-08-12T15:07:33.449Z,97383.97
2022-08-12T15:10:09.441Z,97377.84
2022-08-12T15:12:40.637Z,97377.97
2022-08-12T15:15:10.539Z,97386.16
2022-08-12T15:17:39.911Z,97389.84
2022-08-12T15:20:31.832Z,97388.09
2022-08-12T15:22:58.013Z,97394.50
2022-08-12T15:25:27.586Z,97405.28
2022-08-12T15:28:04.457Z,97432.28
2022-08-12T15:30:35.068Z,97450.28
2022-08-12T15:33:12.721Z,97476.38
2022-08-12T15:35:50.385Z,97463.00
2022-08-12T15:38:24.592Z,97444.25
2022-08-12T15:40:56.262Z,97442.50
2022-08-12T15:44:14.093Z,97438.09
2022-08-12T15:46:17.029Z,97452.56
2022-08-12T15:48:47.018Z,97444.47
2022-08-12T15:51:58.215Z,97446.31
2022-08-12T15:54:30.926Z,97444.72
2022-08-12T15:57:07.927Z,97441.13
2022-08-12T16:00:03.721Z,97439.44
2022-08-12T16:02:29.810Z,97438.69
2022-08-12T16:04:58.682Z,97436.81
2022-08-12T16:07:31.222Z,97437.69
2022-08-12T16:10:08.433Z,97420.56
2022-08-12T16:12:43.702Z,97412.34
2022-08-12T16:15:25.069Z,97409.63
2022-08-12T16:18:18.973Z,97399.72
2022-08-12T16:20:46.651Z,97396.16
2022-08-12T16:23:36.239Z,97392.44
2022-08-12T16:26:06.198Z,97378.13
2022-08-12T16:28:47.638Z,97377.25
2022-08-12T16:31:23.316Z,97382.66
2022-08-12T16:33:59.515Z,97375.44
2022-08-12T16:36:29.679Z,97379.94
2022-08-12T16:39:01.371Z,97381.78
2022-08-12T16:41:38.213Z,97379.09
2022-08-12T16:44:09.709Z,97380.81
2022-08-12T16:46:38.803Z,97380.91
2022-08-12T16:49:09.350Z,97379.94
2022-08-12T16:51:46.568Z,97369.16
2022-08-12T16:54:17.217Z,97356.75
2022-08-12T16:56:54.989Z,97361.41
2022-08-12T16:59:30.960Z,97364.22
2022-08-12T17:02:31.164Z,97366.19
2022-08-12T17:05:06.269Z,97358.22
2022-08-12T17:07:43.430Z,97359.31
2022-08-12T17:10:13.403Z,97348.63
2022-08-12T17:12:46.811Z,97347.03
2022-08-12T17:15:50.904Z,97356.06
2022-08-12T17:18:42.186Z,97359.78
2022-08-12T17:20:57.820Z,97354.50
2022-08-12T17:23:26.746Z,97355.47
2022-08-12T17:26:01.650Z,97350.19
2022-08-12T17:28:31.679Z,97355.72
2022-08-12T17:31:01.130Z,97354.09
2022-08-12T17:33:33.899Z,97355.91
2022-08-12T17:36:03.005Z,97365.00
2022-08-12T17:38:31.147Z,97360.56
2022-08-12T17:40:59.757Z,97361.56
2022-08-12T17:43:58.160Z,97361.66
2022-08-12T17:46:33.523Z,97357.25
2022-08-12T17:49:18.885Z,97361.78
2022-08-12T17:51:50.280Z,97361.91
2022-08-12T17:54:18.979Z,97356.63
2022-08-12T17:56:47.382Z,97358.47
2022-08-12T17:59:47.228Z,97362.97
2022-08-12T18:02:12.362Z,97358.56
2022-08-12T18:05:05.238Z,97363.72
2022-08-12T18:07:36.010Z,97371.69
2022-08-12T18:10:05.626Z,97373.44
2022-08-12T18:12:51.067Z,97376.00
2022-08-12T18:15:26.763Z,97383.97
2022-08-12T18:18:16.862Z,97385.19
2022-08-12T18:20:47.783Z,97389.06
2022-08-12T18:23:24.256Z,97386.63
2022-08-12T18:26:14.631Z,97370.56
2022-08-12T18:28:44.522Z,97374.97
2022-08-12T18:31:17.218Z,97376.59
2022-08-12T18:33:47.238Z,97376.47
2022-08-12T18:36:22.053Z,97385.28
2022-08-12T18:38:56.022Z,97377.22
2022-08-12T18:41:32.088Z,97373.56
2022-08-12T18:44:05.344Z,97384.22
2022-08-12T18:46:53.785Z,97375.25
2022-08-12T18:49:29.682Z,97378.81
2022-08-12T18:52:04.452Z,97371.59
2022-08-12T18:54:35.187Z,97382.38
2022-08-12T18:57:16.243Z,97370.59
2022-08-12T18:59:59.827Z,97379.56
2022-08-12T19:02:33.880Z,97374.19
2022-08-12T19:05:11.280Z,97376.75
2022-08-12T19:07:49.754Z,97370.50
2022-08-12T19:10:30.153Z,97383.13
2022-08-12T19:13:24.385Z,97375.88
2022-08-12T19:15:57.319Z,97365.34
2022-08-12T19:18:29.298Z,97379.16
2022-08-12T19:21:06.230Z,97370.44
2022-08-12T19:23:37.364Z,97366.88
2022-08-12T19:26:10.539Z,97374.97
2022-08-12T19:28:40.736Z,97370.31
2022-08-12T19:31:56.927Z,97364.94
2022-08-12T19:34:47.011Z,97365.81
2022-08-12T19:37:22.612Z,97359.41
2022-08-12T19:40:08.908Z,97355.75
2022-08-12T19:42:44.510Z,97362.03
2022-08-12T19:45:16.917Z,97357.59
2022-08-12T19:47:46.981Z,97349.50
2022-08-12T19:50:20.160Z,97351.25
2022-08-12T19:52:51.410Z,97353.94
2022-08-12T19:55:23.983Z,97348.41
2022-08-12T19:58:02.473Z,97346.59
2022-08-12T20:00:35.288Z,97344.72
2022-08-12T20:03:05.570Z,97351.00
2022-08-12T20:06:04.989Z,97351.84
2022-08-12T20:08:34.135Z,97346.81
2022-08-12T20:12:11.726Z,97342.75
2022-08-12T20:14:00.384Z,97340.03
2022-08-12T20:16:52.276Z,97340.78
2022-08-12T20:19:23.549Z,97336.13
2022-08-12T20:21:51.802Z,97330.75
2022-08-12T20:24:24.496Z,97329.75
2022-08-12T20:27:00.304Z,97331.50
2022-08-12T20:29:35.522Z,97332.34
2022-08-12T20:32:13.919Z,97329.53
2022-08-12T20:34:49.086Z,97329.53
2022-08-12T20:37:22.445Z,97330.50
2022-08-12T20:40:12.962Z,97325.97
2022-08-12T20:42:41.544Z,97325.97
2022-08-12T20:45:10.761Z,97322.19
2022-08-12T20:47:46.712Z,97318.41
2022-08-12T20:50:15.545Z,97322.81
2022-08-12T20:52:49.175Z,97321.13
2022-08-12T20:55:19.538Z,97324.78
2022-08-12T20:58:02.998Z,97319.38
2022-08-12T21:00:33.344Z,97315.81
2022-08-12T21:03:23.400Z,97323.91
2022-08-12T21:06:13.857Z,97331.16
2022-08-12T21:08:42.756Z,97328.56
2022-08-12T21:11:12.313Z,97322.31
2022-08-12T21:13:42.091Z,97325.03
2022-08-12T21:16:10.733Z,97322.31
2022-08-12T21:18:39.698Z,97320.59
2022-08-12T21:21:24.256Z,97319.72
2022-08-12T21:23:58.983Z,97320.59
2022-08-12T21:26:29.043Z,97314.31
2022-08-12T21:29:01.101Z,97321.56
2022-08-12T21:32:36.876Z,97315.31
2022-08-12T21:34:22.147Z,97318.97
2022-08-12T21:36:54.697Z,97322.53
2022-08-12T21:39:35.274Z,97319.97
2022-08-12T21:42:07.122Z,97318.13
2022-08-12T21:45:47.215Z,97318.13
2022-08-12T21:47:25.826Z,97320.84
2022-08-12T21:50:03.460Z,97315.53
2022-08-12T21:52:35.801Z,97310.13
2022-08-12T21:55:19.716Z,97307.44
2022-08-12T21:57:54.850Z,97307.44
2022-08-12T22:00:34.432Z,97307.44
2022-08-12T22:03:55.028Z,97304.88
2022-08-12T22:06:31.065Z,97306.59
2022-08-12T22:09:16.595Z,97308.44
2022-08-12T22:11:56.214Z,97304.00
2022-08-12T22:14:26.778Z,97297.78
2022-08-12T22:16:55.619Z,97294.22
2022-08-12T22:19:24.109Z,97289.69
2022-08-12T22:21:54.724Z,97297.78
2022-08-12T22:24:25.821Z,97287.09
2022-08-12T22:26:56.051Z,97296.03
2022-08-12T22:29:44.287Z,97291.50
2022-08-12T22:32:13.297Z,97279.00
2022-08-12T22:34:46.256Z,97283.56
2022-08-12T22:37:19.895Z,97279.00
2022-08-12T22:39:49.427Z,97282.69
2022-08-12T22:42:35.697Z,97275.56
2022-08-12T22:45:23.947Z,97282.81
2022-08-12T22:47:54.998Z,97282.69
2022-08-12T22:50:28.929Z,97275.56
2022-08-12T22:53:14.938Z,97284.50
2022-08-12T22:56:06.181Z,97282.81
2022-08-12T22:58:33.703Z,97281.94
2022-08-12T23:01:03.690Z,97272.03
2022-08-12T23:03:49.226Z,97272.84
2022-08-12T23:06:20.133Z,97263.06
2022-08-12T23:08:48.584Z,97257.69
2022-08-12T23:11:17.978Z,97263.94
2022-08-12T23:13:54.708Z,97262.19
2022-08-12T23:16:29.366Z,97264.91
2022-08-12T23:19:01.849Z,97255.94
2022-08-12T23:22:04.042Z,97257.69
2022-08-12T23:24:26.739Z,97247.84
2022-08-12T23:27:13.027Z,97245.16
2022-08-12T23:29:43.370Z,97246.91
2022-08-12T23:32:35.831Z,97243.34
2022-08-12T23:35:03.847Z,97236.22
2022-08-12T23:37:47.485Z,97240.63
2022-08-12T23:40:21.262Z,97238.06
2022-08-12T23:42:50.906Z,97229.97
2022-08-12T23:45:30.614Z,97228.16
2022-08-12T23:48:00.530Z,97232.66
2022-08-12T23:50:33.852Z,97227.28
2022-08-12T23:53:05.429Z,97229.97
2022-08-12T23:55:40.728Z,97229.09
2022-08-12T23:58:17.428Z,97224.72
